sensor_id;sensor_type;location;lat;lon;timestamp;P1;durP1;ratioP1;P2;durP2;ratioP2
71298;SDS011;59083;47.974;21.722;2023-05-16T00:01:14;25.00;;;14.75;;
71298;SDS011;59083;47.974;21.722;2023-05-16T00:04:16;23.02;;;14.00;;
71298;SDS011;59083;47.974;21.722;2023-05-16T00:07:17;23.55;;;14.82;;
71298;SDS011;59083;47.974;21.722;2023-05-16T00:10:19;22.90;;;14.73;;
71298;SDS011;59083;47.974;21.722;2023-05-16T00:13:20;31.98;;;14.38;;
71298;SDS011;59083;47.974;21.722;2023-05-16T00:16:25;27.17;;;15.00;;
71298;SDS011;59083;47.974;21.722;2023-05-16T00:19:29;22.02;;;13.88;;
71298;SDS011;59083;47.974;21.722;2023-05-16T00:22:30;23.55;;;15.15;;
71298;SDS011;59083;47.974;21.722;2023-05-16T00:25:31;24.17;;;14.43;;
71298;SDS011;59083;47.974;21.722;2023-05-16T00:28:32;22.95;;;14.15;;
71298;SDS011;59083;47.974;21.722;2023-05-16T00:31:33;22.67;;;14.25;;
71298;SDS011;59083;47.974;21.722;2023-05-16T00:34:35;21.75;;;14.07;;
71298;SDS011;59083;47.974;21.722;2023-05-16T00:37:37;25.77;;;15.80;;
71298;SDS011;59083;47.974;21.722;2023-05-16T00:40:38;22.67;;;14.80;;
71298;SDS011;59083;47.974;21.722;2023-05-16T00:43:40;23.15;;;14.57;;
71298;SDS011;59083;47.974;21.722;2023-05-16T00:46:41;24.67;;;14.60;;
71298;SDS011;59083;47.974;21.722;2023-05-16T00:49:43;23.33;;;14.93;;
71298;SDS011;59083;47.974;21.722;2023-05-16T00:52:44;26.62;;;15.07;;
71298;SDS011;59083;47.974;21.722;2023-05-16T00:55:46;23.70;;;14.97;;
71298;SDS011;59083;47.974;21.722;2023-05-16T00:58:47;25.12;;;14.40;;
71298;SDS011;59083;47.974;21.722;2023-05-16T01:01:49;23.92;;;14.38;;
71298;SDS011;59083;47.974;21.722;2023-05-16T01:04:52;22.95;;;14.43;;
71298;SDS011;59083;47.974;21.722;2023-05-16T01:07:54;22.60;;;14.85;;
71298;SDS011;59083;47.974;21.722;2023-05-16T01:11:07;23.80;;;14.20;;
71298;SDS011;59083;47.974;21.722;2023-05-16T01:14:28;24.12;;;15.23;;
71298;SDS011;59083;47.974;21.722;2023-05-16T01:20:44;25.05;;;14.50;;
71298;SDS011;59083;47.974;21.722;2023-05-16T01:23:51;28.05;;;14.98;;
71298;SDS011;59083;47.974;21.722;2023-05-16T01:27:03;26.40;;;14.57;;
71298;SDS011;59083;47.974;21.722;2023-05-16T01:30:16;24.87;;;14.87;;
71298;SDS011;59083;47.974;21.722;2023-05-16T01:33:19;30.48;;;16.37;;
71298;SDS011;59083;47.974;21.722;2023-05-16T01:36:24;23.50;;;14.90;;
71298;SDS011;59083;47.974;21.722;2023-05-16T01:42:49;24.40;;;14.93;;
71298;SDS011;59083;47.974;21.722;2023-05-16T01:45:57;25.25;;;15.15;;
71298;SDS011;59083;47.974;21.722;2023-05-16T01:49:07;27.85;;;14.98;;
71298;SDS011;59083;47.974;21.722;2023-05-16T01:52:19;25.90;;;15.00;;
71298;SDS011;59083;47.974;21.722;2023-05-16T01:55:42;25.02;;;14.90;;
71298;SDS011;59083;47.974;21.722;2023-05-16T01:58:45;29.80;;;15.27;;
71298;SDS011;59083;47.974;21.722;2023-05-16T02:01:52;27.02;;;15.25;;
71298;SDS011;59083;47.974;21.722;2023-05-16T02:04:54;24.50;;;15.18;;
71298;SDS011;59083;47.974;21.722;2023-05-16T02:07:55;26.52;;;15.13;;
71298;SDS011;59083;47.974;21.722;2023-05-16T02:10:57;26.00;;;14.98;;
71298;SDS011;59083;47.974;21.722;2023-05-16T02:13:58;22.43;;;14.30;;
71298;SDS011;59083;47.974;21.722;2023-05-16T02:16:59;26.23;;;14.95;;
71298;SDS011;59083;47.974;21.722;2023-05-16T02:20:00;25.05;;;15.15;;
71298;SDS011;59083;47.974;21.722;2023-05-16T02:23:07;32.33;;;14.95;;
71298;SDS011;59083;47.974;21.722;2023-05-16T02:26:08;26.17;;;14.90;;
71298;SDS011;59083;47.974;21.722;2023-05-16T02:29:09;25.63;;;14.20;;
71298;SDS011;59083;47.974;21.722;2023-05-16T02:32:11;27.02;;;14.98;;
71298;SDS011;59083;47.974;21.722;2023-05-16T02:35:13;23.75;;;15.02;;
71298;SDS011;59083;47.974;21.722;2023-05-16T02:38:15;27.13;;;15.35;;
71298;SDS011;59083;47.974;21.722;2023-05-16T02:41:17;26.58;;;15.63;;
71298;SDS011;59083;47.974;21.722;2023-05-16T02:44:18;25.50;;;14.47;;
71298;SDS011;59083;47.974;21.722;2023-05-16T02:47:20;27.87;;;15.38;;
71298;SDS011;59083;47.974;21.722;2023-05-16T02:50:21;25.88;;;14.68;;
71298;SDS011;59083;47.974;21.722;2023-05-16T02:53:22;25.50;;;15.13;;
71298;SDS011;59083;47.974;21.722;2023-05-16T02:56:23;26.52;;;14.57;;
71298;SDS011;59083;47.974;21.722;2023-05-16T02:59:26;28.47;;;15.33;;
71298;SDS011;59083;47.974;21.722;2023-05-16T03:02:27;29.98;;;15.80;;
71298;SDS011;59083;47.974;21.722;2023-05-16T03:05:28;30.45;;;16.15;;
71298;SDS011;59083;47.974;21.722;2023-05-16T03:08:30;27.58;;;14.30;;
71298;SDS011;59083;47.974;21.722;2023-05-16T03:11:31;27.80;;;14.40;;
71298;SDS011;59083;47.974;21.722;2023-05-16T03:14:33;25.53;;;13.50;;
71298;SDS011;59083;47.974;21.722;2023-05-16T03:17:34;27.85;;;14.90;;
71298;SDS011;59083;47.974;21.722;2023-05-16T03:20:36;33.08;;;15.30;;
71298;SDS011;59083;47.974;21.722;2023-05-16T03:23:38;39.13;;;14.93;;
71298;SDS011;59083;47.974;21.722;2023-05-16T03:26:39;47.42;;;15.60;;
71298;SDS011;59083;47.974;21.722;2023-05-16T03:29:40;30.23;;;14.73;;
71298;SDS011;59083;47.974;21.722;2023-05-16T03:32:43;30.23;;;14.73;;
71298;SDS011;59083;47.974;21.722;2023-05-16T03:35:46;29.80;;;14.68;;
71298;SDS011;59083;47.974;21.722;2023-05-16T03:38:47;34.25;;;15.27;;
71298;SDS011;59083;47.974;21.722;2023-05-16T03:41:49;35.50;;;15.30;;
71298;SDS011;59083;47.974;21.722;2023-05-16T03:44:51;39.63;;;19.13;;
71298;SDS011;59083;47.974;21.722;2023-05-16T03:47:53;42.58;;;16.98;;
71298;SDS011;59083;47.974;21.722;2023-05-16T03:50:54;32.22;;;15.23;;
71298;SDS011;59083;47.974;21.722;2023-05-16T03:53:55;31.12;;;14.52;;
71298;SDS011;59083;47.974;21.722;2023-05-16T03:56:57;39.20;;;20.27;;
71298;SDS011;59083;47.974;21.722;2023-05-16T03:59:59;29.40;;;15.27;;
71298;SDS011;59083;47.974;21.722;2023-05-16T04:03:00;35.17;;;15.68;;
71298;SDS011;59083;47.974;21.722;2023-05-16T04:06:01;35.13;;;16.08;;
71298;SDS011;59083;47.974;21.722;2023-05-16T04:09:02;29.63;;;15.23;;
71298;SDS011;59083;47.974;21.722;2023-05-16T04:12:04;32.15;;;15.57;;
71298;SDS011;59083;47.974;21.722;2023-05-16T04:15:05;31.97;;;14.50;;
71298;SDS011;59083;47.974;21.722;2023-05-16T04:18:07;31.45;;;15.02;;
71298;SDS011;59083;47.974;21.722;2023-05-16T04:21:09;32.70;;;15.25;;
71298;SDS011;59083;47.974;21.722;2023-05-16T04:24:14;31.77;;;15.57;;
71298;SDS011;59083;47.974;21.722;2023-05-16T04:27:16;30.73;;;15.05;;
71298;SDS011;59083;47.974;21.722;2023-05-16T04:30:18;31.53;;;16.07;;
71298;SDS011;59083;47.974;21.722;2023-05-16T04:33:19;29.35;;;14.55;;
71298;SDS011;59083;47.974;21.722;2023-05-16T04:36:20;27.77;;;14.70;;
71298;SDS011;59083;47.974;21.722;2023-05-16T04:39:21;32.45;;;15.48;;
71298;SDS011;59083;47.974;21.722;2023-05-16T04:42:23;31.12;;;13.98;;
71298;SDS011;59083;47.974;21.722;2023-05-16T04:45:24;29.33;;;14.10;;
71298;SDS011;59083;47.974;21.722;2023-05-16T04:48:25;29.52;;;14.43;;
71298;SDS011;59083;47.974;21.722;2023-05-16T04:51:26;27.60;;;14.10;;
71298;SDS011;59083;47.974;21.722;2023-05-16T04:54:28;27.37;;;13.32;;
71298;SDS011;59083;47.974;21.722;2023-05-16T04:57:29;26.48;;;13.75;;
71298;SDS011;59083;47.974;21.722;2023-05-16T05:00:30;25.70;;;13.70;;
71298;SDS011;59083;47.974;21.722;2023-05-16T05:03:31;23.65;;;13.45;;
71298;SDS011;59083;47.974;21.722;2023-05-16T05:06:34;24.17;;;13.52;;
71298;SDS011;59083;47.974;21.722;2023-05-16T05:09:35;24.85;;;13.25;;
71298;SDS011;59083;47.974;21.722;2023-05-16T05:12:37;25.65;;;13.82;;
71298;SDS011;59083;47.974;21.722;2023-05-16T05:15:38;22.43;;;13.17;;
71298;SDS011;59083;47.974;21.722;2023-05-16T05:18:39;24.15;;;13.62;;
71298;SDS011;59083;47.974;21.722;2023-05-16T05:21:40;26.77;;;14.18;;
71298;SDS011;59083;47.974;21.722;2023-05-16T05:24:42;21.52;;;12.43;;
71298;SDS011;59083;47.974;21.722;2023-05-16T05:27:43;21.05;;;12.75;;
71298;SDS011;59083;47.974;21.722;2023-05-16T05:30:44;23.70;;;12.77;;
71298;SDS011;59083;47.974;21.722;2023-05-16T05:33:46;24.42;;;13.05;;
71298;SDS011;59083;47.974;21.722;2023-05-16T05:36:48;22.42;;;12.27;;
71298;SDS011;59083;47.974;21.722;2023-05-16T05:39:49;21.15;;;12.75;;
71298;SDS011;59083;47.974;21.722;2023-05-16T05:42:50;22.65;;;12.35;;
71298;SDS011;59083;47.974;21.722;2023-05-16T05:45:51;20.90;;;12.53;;
71298;SDS011;59083;47.974;21.722;2023-05-16T05:48:53;24.65;;;11.88;;
71298;SDS011;59083;47.974;21.722;2023-05-16T05:51:54;22.42;;;11.57;;
71298;SDS011;59083;47.974;21.722;2023-05-16T05:54:56;22.08;;;12.32;;
71298;SDS011;59083;47.974;21.722;2023-05-16T05:57:59;20.15;;;11.38;;
71298;SDS011;59083;47.974;21.722;2023-05-16T06:01:00;19.37;;;11.30;;
71298;SDS011;59083;47.974;21.722;2023-05-16T06:04:02;19.55;;;11.52;;
71298;SDS011;59083;47.974;21.722;2023-05-16T06:07:03;22.17;;;12.07;;
71298;SDS011;59083;47.974;21.722;2023-05-16T06:10:05;21.00;;;11.85;;
71298;SDS011;59083;47.974;21.722;2023-05-16T06:13:08;22.90;;;11.70;;
71298;SDS011;59083;47.974;21.722;2023-05-16T06:16:09;19.33;;;11.07;;
71298;SDS011;59083;47.974;21.722;2023-05-16T06:19:10;21.83;;;12.40;;
71298;SDS011;59083;47.974;21.722;2023-05-16T06:22:15;20.83;;;11.18;;
71298;SDS011;59083;47.974;21.722;2023-05-16T06:25:16;20.98;;;10.95;;
71298;SDS011;59083;47.974;21.722;2023-05-16T06:28:18;18.27;;;10.63;;
71298;SDS011;59083;47.974;21.722;2023-05-16T06:31:19;17.80;;;11.17;;
71298;SDS011;59083;47.974;21.722;2023-05-16T06:34:20;17.70;;;10.00;;
71298;SDS011;59083;47.974;21.722;2023-05-16T06:37:27;17.17;;;9.70;;
71298;SDS011;59083;47.974;21.722;2023-05-16T06:40:29;15.23;;;9.02;;
71298;SDS011;59083;47.974;21.722;2023-05-16T06:43:30;15.85;;;9.20;;
71298;SDS011;59083;47.974;21.722;2023-05-16T06:46:31;14.93;;;8.90;;
71298;SDS011;59083;47.974;21.722;2023-05-16T06:49:33;15.93;;;9.23;;
71298;SDS011;59083;47.974;21.722;2023-05-16T06:52:34;14.25;;;9.48;;
71298;SDS011;59083;47.974;21.722;2023-05-16T06:55:35;14.95;;;9.35;;
71298;SDS011;59083;47.974;21.722;2023-05-16T06:58:37;17.15;;;9.75;;
71298;SDS011;59083;47.974;21.722;2023-05-16T07:01:38;13.67;;;8.00;;
71298;SDS011;59083;47.974;21.722;2023-05-16T07:04:41;21.35;;;9.77;;
71298;SDS011;59083;47.974;21.722;2023-05-16T07:07:45;25.23;;;15.88;;
71298;SDS011;59083;47.974;21.722;2023-05-16T07:10:46;18.62;;;10.45;;
71298;SDS011;59083;47.974;21.722;2023-05-16T07:13:47;17.02;;;9.65;;
71298;SDS011;59083;47.974;21.722;2023-05-16T07:16:49;18.03;;;9.20;;
71298;SDS011;59083;47.974;21.722;2023-05-16T07:19:50;15.98;;;9.10;;
71298;SDS011;59083;47.974;21.722;2023-05-16T07:22:51;16.45;;;9.77;;
71298;SDS011;59083;47.974;21.722;2023-05-16T07:25:52;15.48;;;7.95;;
71298;SDS011;59083;47.974;21.722;2023-05-16T07:28:53;17.95;;;9.38;;
71298;SDS011;59083;47.974;21.722;2023-05-16T07:31:55;17.33;;;8.83;;
71298;SDS011;59083;47.974;21.722;2023-05-16T07:34:56;20.83;;;9.63;;
71298;SDS011;59083;47.974;21.722;2023-05-16T07:37:57;13.93;;;8.82;;
71298;SDS011;59083;47.974;21.722;2023-05-16T07:40:59;14.52;;;8.93;;
71298;SDS011;59083;47.974;21.722;2023-05-16T07:44:00;15.80;;;8.75;;
71298;SDS011;59083;47.974;21.722;2023-05-16T07:47:02;15.77;;;8.87;;
71298;SDS011;59083;47.974;21.722;2023-05-16T07:50:03;17.60;;;8.57;;
71298;SDS011;59083;47.974;21.722;2023-05-16T07:53:05;16.05;;;8.85;;
71298;SDS011;59083;47.974;21.722;2023-05-16T07:56:06;14.40;;;8.27;;
71298;SDS011;59083;47.974;21.722;2023-05-16T07:59:08;13.65;;;8.45;;
71298;SDS011;59083;47.974;21.722;2023-05-16T08:02:10;15.50;;;8.07;;
71298;SDS011;59083;47.974;21.722;2023-05-16T08:05:11;14.95;;;8.75;;
71298;SDS011;59083;47.974;21.722;2023-05-16T08:08:12;14.50;;;8.38;;
71298;SDS011;59083;47.974;21.722;2023-05-16T08:11:14;16.00;;;7.80;;
71298;SDS011;59083;47.974;21.722;2023-05-16T08:14:15;12.35;;;7.78;;
71298;SDS011;59083;47.974;21.722;2023-05-16T08:17:16;16.57;;;8.40;;
71298;SDS011;59083;47.974;21.722;2023-05-16T08:20:17;13.25;;;8.23;;
71298;SDS011;59083;47.974;21.722;2023-05-16T08:23:19;13.35;;;8.95;;
71298;SDS011;59083;47.974;21.722;2023-05-16T08:26:20;14.30;;;7.97;;
71298;SDS011;59083;47.974;21.722;2023-05-16T08:29:22;15.50;;;8.52;;
71298;SDS011;59083;47.974;21.722;2023-05-16T08:32:23;12.97;;;7.73;;
71298;SDS011;59083;47.974;21.722;2023-05-16T08:35:25;14.05;;;8.43;;
71298;SDS011;59083;47.974;21.722;2023-05-16T08:38:26;18.87;;;9.05;;
71298;SDS011;59083;47.974;21.722;2023-05-16T08:41:28;13.73;;;8.52;;
71298;SDS011;59083;47.974;21.722;2023-05-16T08:44:29;14.57;;;7.90;;
71298;SDS011;59083;47.974;21.722;2023-05-16T08:47:31;14.33;;;7.33;;
71298;SDS011;59083;47.974;21.722;2023-05-16T08:50:32;13.77;;;8.25;;
71298;SDS011;59083;47.974;21.722;2023-05-16T08:53:38;16.62;;;7.95;;
71298;SDS011;59083;47.974;21.722;2023-05-16T08:56:44;13.18;;;7.60;;
71298;SDS011;59083;47.974;21.722;2023-05-16T08:59:48;14.70;;;8.30;;
71298;SDS011;59083;47.974;21.722;2023-05-16T09:02:49;15.07;;;8.67;;
71298;SDS011;59083;47.974;21.722;2023-05-16T09:05:51;21.00;;;10.05;;
71298;SDS011;59083;47.974;21.722;2023-05-16T09:08:53;13.48;;;7.68;;
71298;SDS011;59083;47.974;21.722;2023-05-16T09:11:55;12.95;;;7.90;;
71298;SDS011;59083;47.974;21.722;2023-05-16T09:14:56;15.02;;;7.72;;
71298;SDS011;59083;47.974;21.722;2023-05-16T09:18:01;13.50;;;7.30;;
71298;SDS011;59083;47.974;21.722;2023-05-16T09:21:03;13.13;;;7.93;;
71298;SDS011;59083;47.974;21.722;2023-05-16T09:24:06;14.57;;;7.45;;
71298;SDS011;59083;47.974;21.722;2023-05-16T09:27:12;15.43;;;7.47;;
71298;SDS011;59083;47.974;21.722;2023-05-16T09:30:14;16.90;;;8.23;;
71298;SDS011;59083;47.974;21.722;2023-05-16T09:33:16;15.90;;;7.10;;
71298;SDS011;59083;47.974;21.722;2023-05-16T09:36:17;13.25;;;7.50;;
71298;SDS011;59083;47.974;21.722;2023-05-16T09:39:19;12.60;;;7.68;;
71298;SDS011;59083;47.974;21.722;2023-05-16T09:42:20;16.08;;;9.05;;
71298;SDS011;59083;47.974;21.722;2023-05-16T09:45:22;16.50;;;8.10;;
71298;SDS011;59083;47.974;21.722;2023-05-16T09:48:23;12.83;;;7.37;;
71298;SDS011;59083;47.974;21.722;2023-05-16T09:51:28;12.18;;;7.65;;
71298;SDS011;59083;47.974;21.722;2023-05-16T09:54:30;11.95;;;7.12;;
71298;SDS011;59083;47.974;21.722;2023-05-16T09:57:37;16.02;;;7.43;;
71298;SDS011;59083;47.974;21.722;2023-05-16T10:00:40;15.48;;;7.82;;
71298;SDS011;59083;47.974;21.722;2023-05-16T10:03:41;13.20;;;7.30;;
71298;SDS011;59083;47.974;21.722;2023-05-16T10:06:43;13.18;;;7.20;;
71298;SDS011;59083;47.974;21.722;2023-05-16T10:09:46;13.40;;;7.57;;
71298;SDS011;59083;47.974;21.722;2023-05-16T10:12:49;13.80;;;7.22;;
71298;SDS011;59083;47.974;21.722;2023-05-16T10:15:51;12.50;;;7.37;;
71298;SDS011;59083;47.974;21.722;2023-05-16T10:18:58;16.10;;;7.97;;
71298;SDS011;59083;47.974;21.722;2023-05-16T10:22:03;13.62;;;7.32;;
71298;SDS011;59083;47.974;21.722;2023-05-16T10:25:24;11.80;;;7.05;;
71298;SDS011;59083;47.974;21.722;2023-05-16T10:28:29;16.55;;;7.20;;
71298;SDS011;59083;47.974;21.722;2023-05-16T10:31:31;16.10;;;7.37;;
71298;SDS011;59083;47.974;21.722;2023-05-16T10:34:32;13.60;;;6.87;;
71298;SDS011;59083;47.974;21.722;2023-05-16T10:37:34;13.15;;;6.62;;
71298;SDS011;59083;47.974;21.722;2023-05-16T10:40:37;12.90;;;7.18;;
71298;SDS011;59083;47.974;21.722;2023-05-16T10:43:39;12.18;;;7.12;;
71298;SDS011;59083;47.974;21.722;2023-05-16T10:46:45;12.60;;;7.10;;
71298;SDS011;59083;47.974;21.722;2023-05-16T10:49:47;13.90;;;7.00;;
71298;SDS011;59083;47.974;21.722;2023-05-16T10:52:51;11.68;;;7.45;;
71298;SDS011;59083;47.974;21.722;2023-05-16T10:59:00;14.00;;;7.78;;
71298;SDS011;59083;47.974;21.722;2023-05-16T11:02:02;15.20;;;7.95;;
71298;SDS011;59083;47.974;21.722;2023-05-16T11:05:03;16.70;;;8.70;;
71298;SDS011;59083;47.974;21.722;2023-05-16T11:08:06;14.23;;;8.63;;
71298;SDS011;59083;47.974;21.722;2023-05-16T11:14:51;17.58;;;8.60;;
71298;SDS011;59083;47.974;21.722;2023-05-16T11:18:08;14.25;;;8.80;;
71298;SDS011;59083;47.974;21.722;2023-05-16T11:21:15;16.10;;;10.30;;
71298;SDS011;59083;47.974;21.722;2023-05-16T11:24:29;16.95;;;8.65;;
71298;SDS011;59083;47.974;21.722;2023-05-16T11:27:35;15.52;;;8.60;;
71298;SDS011;59083;47.974;21.722;2023-05-16T11:30:43;14.23;;;8.65;;
71298;SDS011;59083;47.974;21.722;2023-05-16T11:33:45;14.80;;;8.35;;
71298;SDS011;59083;47.974;21.722;2023-05-16T11:36:47;13.93;;;8.33;;
71298;SDS011;59083;47.974;21.722;2023-05-16T11:39:49;14.43;;;8.13;;
71298;SDS011;59083;47.974;21.722;2023-05-16T11:42:51;16.15;;;8.27;;
71298;SDS011;59083;47.974;21.722;2023-05-16T11:45:55;13.68;;;7.70;;
71298;SDS011;59083;47.974;21.722;2023-05-16T11:48:57;16.05;;;8.25;;
71298;SDS011;59083;47.974;21.722;2023-05-16T11:51:58;14.07;;;8.50;;
71298;SDS011;59083;47.974;21.722;2023-05-16T11:55:00;13.57;;;7.90;;
71298;SDS011;59083;47.974;21.722;2023-05-16T11:58:01;13.60;;;8.32;;
71298;SDS011;59083;47.974;21.722;2023-05-16T12:01:03;15.88;;;8.43;;
71298;SDS011;59083;47.974;21.722;2023-05-16T12:04:12;16.12;;;8.80;;
71298;SDS011;59083;47.974;21.722;2023-05-16T12:07:14;13.30;;;8.27;;
71298;SDS011;59083;47.974;21.722;2023-05-16T12:10:15;15.73;;;8.60;;
71298;SDS011;59083;47.974;21.722;2023-05-16T12:13:17;17.08;;;8.32;;
71298;SDS011;59083;47.974;21.722;2023-05-16T12:16:20;15.95;;;7.93;;
71298;SDS011;59083;47.974;21.722;2023-05-16T12:19:22;12.20;;;8.52;;
71298;SDS011;59083;47.974;21.722;2023-05-16T12:22:24;13.03;;;8.80;;
71298;SDS011;59083;47.974;21.722;2023-05-16T12:25:26;15.05;;;8.75;;
71298;SDS011;59083;47.974;21.722;2023-05-16T12:28:32;14.82;;;8.60;;
71298;SDS011;59083;47.974;21.722;2023-05-16T12:31:35;14.40;;;8.50;;
71298;SDS011;59083;47.974;21.722;2023-05-16T12:34:38;17.73;;;8.70;;
71298;SDS011;59083;47.974;21.722;2023-05-16T12:37:41;16.90;;;8.00;;
71298;SDS011;59083;47.974;21.722;2023-05-16T12:40:43;16.17;;;7.85;;
71298;SDS011;59083;47.974;21.722;2023-05-16T12:43:44;14.73;;;8.27;;
71298;SDS011;59083;47.974;21.722;2023-05-16T12:46:46;17.52;;;7.75;;
71298;SDS011;59083;47.974;21.722;2023-05-16T12:49:51;14.23;;;7.82;;
71298;SDS011;59083;47.974;21.722;2023-05-16T12:52:53;16.13;;;8.50;;
71298;SDS011;59083;47.974;21.722;2023-05-16T12:55:54;13.80;;;8.02;;
71298;SDS011;59083;47.974;21.722;2023-05-16T12:58:55;12.77;;;7.45;;
71298;SDS011;59083;47.974;21.722;2023-05-16T13:01:57;13.77;;;7.50;;
71298;SDS011;59083;47.974;21.722;2023-05-16T13:04:58;12.05;;;7.85;;
71298;SDS011;59083;47.974;21.722;2023-05-16T13:08:00;11.63;;;7.53;;
71298;SDS011;59083;47.974;21.722;2023-05-16T13:11:02;13.27;;;7.28;;
71298;SDS011;59083;47.974;21.722;2023-05-16T13:14:03;12.73;;;7.30;;
71298;SDS011;59083;47.974;21.722;2023-05-16T13:17:04;13.73;;;7.70;;
71298;SDS011;59083;47.974;21.722;2023-05-16T13:20:07;15.88;;;7.43;;
71298;SDS011;59083;47.974;21.722;2023-05-16T13:23:09;12.97;;;6.87;;
71298;SDS011;59083;47.974;21.722;2023-05-16T13:26:10;12.98;;;7.47;;
71298;SDS011;59083;47.974;21.722;2023-05-16T13:29:12;12.23;;;6.80;;
71298;SDS011;59083;47.974;21.722;2023-05-16T13:32:14;14.95;;;7.32;;
71298;SDS011;59083;47.974;21.722;2023-05-16T13:35:15;14.23;;;7.12;;
71298;SDS011;59083;47.974;21.722;2023-05-16T13:38:17;11.53;;;6.93;;
71298;SDS011;59083;47.974;21.722;2023-05-16T13:41:19;12.25;;;7.20;;
71298;SDS011;59083;47.974;21.722;2023-05-16T13:44:20;13.62;;;7.07;;
71298;SDS011;59083;47.974;21.722;2023-05-16T13:47:22;12.90;;;7.00;;
71298;SDS011;59083;47.974;21.722;2023-05-16T13:50:23;15.52;;;7.07;;
71298;SDS011;59083;47.974;21.722;2023-05-16T13:53:24;15.20;;;7.00;;
71298;SDS011;59083;47.974;21.722;2023-05-16T13:56:25;14.90;;;7.32;;
71298;SDS011;59083;47.974;21.722;2023-05-16T13:59:27;12.98;;;7.22;;
71298;SDS011;59083;47.974;21.722;2023-05-16T14:02:28;12.10;;;7.00;;
71298;SDS011;59083;47.974;21.722;2023-05-16T14:05:29;12.57;;;6.75;;
71298;SDS011;59083;47.974;21.722;2023-05-16T14:08:31;14.33;;;7.10;;
71298;SDS011;59083;47.974;21.722;2023-05-16T14:11:32;13.27;;;7.35;;
71298;SDS011;59083;47.974;21.722;2023-05-16T14:14:34;14.18;;;7.15;;
71298;SDS011;59083;47.974;21.722;2023-05-16T14:17:35;13.77;;;7.43;;
71298;SDS011;59083;47.974;21.722;2023-05-16T14:20:37;16.33;;;8.98;;
71298;SDS011;59083;47.974;21.722;2023-05-16T14:23:38;9.97;;;6.27;;
71298;SDS011;59083;47.974;21.722;2023-05-16T14:26:39;13.25;;;7.82;;
71298;SDS011;59083;47.974;21.722;2023-05-16T14:29:41;13.00;;;6.75;;
71298;SDS011;59083;47.974;21.722;2023-05-16T14:32:42;10.15;;;6.25;;
71298;SDS011;59083;47.974;21.722;2023-05-16T14:35:44;12.73;;;6.78;;
71298;SDS011;59083;47.974;21.722;2023-05-16T14:38:45;13.73;;;7.40;;
71298;SDS011;59083;47.974;21.722;2023-05-16T14:41:48;10.35;;;6.40;;
71298;SDS011;59083;47.974;21.722;2023-05-16T14:44:50;13.93;;;7.32;;
71298;SDS011;59083;47.974;21.722;2023-05-16T14:47:51;11.50;;;7.32;;
71298;SDS011;59083;47.974;21.722;2023-05-16T14:50:53;14.15;;;7.37;;
71298;SDS011;59083;47.974;21.722;2023-05-16T14:53:54;14.70;;;6.93;;
71298;SDS011;59083;47.974;21.722;2023-05-16T14:56:55;11.98;;;6.15;;
71298;SDS011;59083;47.974;21.722;2023-05-16T14:59:57;13.07;;;7.05;;
71298;SDS011;59083;47.974;21.722;2023-05-16T15:02:58;11.63;;;7.10;;
71298;SDS011;59083;47.974;21.722;2023-05-16T15:05:59;17.02;;;7.00;;
71298;SDS011;59083;47.974;21.722;2023-05-16T15:09:00;11.33;;;6.30;;
71298;SDS011;59083;47.974;21.722;2023-05-16T15:12:02;9.68;;;6.35;;
71298;SDS011;59083;47.974;21.722;2023-05-16T15:15:03;12.82;;;6.80;;
71298;SDS011;59083;47.974;21.722;2023-05-16T15:18:05;11.38;;;6.10;;
71298;SDS011;59083;47.974;21.722;2023-05-16T15:21:06;12.52;;;6.50;;
71298;SDS011;59083;47.974;21.722;2023-05-16T15:24:07;14.77;;;6.80;;
71298;SDS011;59083;47.974;21.722;2023-05-16T15:27:08;13.60;;;6.30;;
71298;SDS011;59083;47.974;21.722;2023-05-16T15:30:10;14.10;;;6.40;;
71298;SDS011;59083;47.974;21.722;2023-05-16T15:33:11;12.55;;;6.60;;
71298;SDS011;59083;47.974;21.722;2023-05-16T15:36:13;13.75;;;6.90;;
71298;SDS011;59083;47.974;21.722;2023-05-16T15:39:14;12.17;;;6.13;;
71298;SDS011;59083;47.974;21.722;2023-05-16T15:42:16;13.13;;;6.93;;
71298;SDS011;59083;47.974;21.722;2023-05-16T15:45:19;12.05;;;6.57;;
71298;SDS011;59083;47.974;21.722;2023-05-16T15:48:20;15.07;;;6.35;;
71298;SDS011;59083;47.974;21.722;2023-05-16T15:51:22;13.95;;;6.45;;
71298;SDS011;59083;47.974;21.722;2023-05-16T15:54:23;12.77;;;6.60;;
71298;SDS011;59083;47.974;21.722;2023-05-16T15:57:24;15.35;;;7.03;;
71298;SDS011;59083;47.974;21.722;2023-05-16T16:00:25;12.45;;;6.60;;
71298;SDS011;59083;47.974;21.722;2023-05-16T16:03:27;16.45;;;7.25;;
71298;SDS011;59083;47.974;21.722;2023-05-16T16:06:28;14.18;;;7.18;;
71298;SDS011;59083;47.974;21.722;2023-05-16T16:09:29;12.93;;;7.33;;
71298;SDS011;59083;47.974;21.722;2023-05-16T16:12:30;14.57;;;7.12;;
71298;SDS011;59083;47.974;21.722;2023-05-16T16:15:32;12.40;;;7.60;;
71298;SDS011;59083;47.974;21.722;2023-05-16T16:18:33;12.05;;;6.65;;
71298;SDS011;59083;47.974;21.722;2023-05-16T16:21:34;12.75;;;6.90;;
71298;SDS011;59083;47.974;21.722;2023-05-16T16:24:36;14.43;;;7.00;;
71298;SDS011;59083;47.974;21.722;2023-05-16T16:27:37;15.73;;;7.45;;
71298;SDS011;59083;47.974;21.722;2023-05-16T16:30:39;15.35;;;7.32;;
71298;SDS011;59083;47.974;21.722;2023-05-16T16:33:40;17.37;;;7.45;;
71298;SDS011;59083;47.974;21.722;2023-05-16T16:36:42;16.27;;;8.13;;
71298;SDS011;59083;47.974;21.722;2023-05-16T16:39:43;15.43;;;7.30;;
71298;SDS011;59083;47.974;21.722;2023-05-16T16:42:44;15.15;;;7.57;;
71298;SDS011;59083;47.974;21.722;2023-05-16T16:45:45;17.27;;;7.90;;
71298;SDS011;59083;47.974;21.722;2023-05-16T16:48:47;16.83;;;8.85;;
71298;SDS011;59083;47.974;21.722;2023-05-16T16:51:49;18.30;;;9.90;;
71298;SDS011;59083;47.974;21.722;2023-05-16T16:54:50;20.73;;;9.77;;
71298;SDS011;59083;47.974;21.722;2023-05-16T16:57:52;14.87;;;8.90;;
71298;SDS011;59083;47.974;21.722;2023-05-16T17:00:53;15.93;;;9.73;;
71298;SDS011;59083;47.974;21.722;2023-05-16T17:03:54;16.02;;;9.27;;
71298;SDS011;59083;47.974;21.722;2023-05-16T17:06:55;15.73;;;9.20;;
71298;SDS011;59083;47.974;21.722;2023-05-16T17:09:57;17.10;;;9.10;;
71298;SDS011;59083;47.974;21.722;2023-05-16T17:12:58;15.73;;;8.80;;
71298;SDS011;59083;47.974;21.722;2023-05-16T17:16:08;15.32;;;9.10;;
71298;SDS011;59083;47.974;21.722;2023-05-16T17:19:09;21.98;;;8.82;;
71298;SDS011;59083;47.974;21.722;2023-05-16T17:22:11;20.40;;;8.70;;
71298;SDS011;59083;47.974;21.722;2023-05-16T17:25:12;16.00;;;8.43;;
71298;SDS011;59083;47.974;21.722;2023-05-16T17:28:14;17.55;;;8.93;;
71298;SDS011;59083;47.974;21.722;2023-05-16T17:31:15;17.58;;;8.57;;
71298;SDS011;59083;47.974;21.722;2023-05-16T17:34:16;12.95;;;8.00;;
71298;SDS011;59083;47.974;21.722;2023-05-16T17:37:17;19.73;;;8.77;;
71298;SDS011;59083;47.974;21.722;2023-05-16T17:40:19;17.47;;;9.17;;
71298;SDS011;59083;47.974;21.722;2023-05-16T17:43:21;15.38;;;8.55;;
71298;SDS011;59083;47.974;21.722;2023-05-16T17:46:22;16.98;;;8.27;;
71298;SDS011;59083;47.974;21.722;2023-05-16T17:49:23;17.75;;;8.50;;
71298;SDS011;59083;47.974;21.722;2023-05-16T17:52:25;15.70;;;8.07;;